Time;durP1;ratioP1;P1;durP2;ratioP2;P2;SDS_P1;SDS_P2;PMS_P1;PMS_P2;Temp;Humidity;BMP_temperature;BMP_pressure;BME280_temperature;BME280_humidity;BME280_pressure;Samples;Min_cycle;Max_cycle;Signal;HPM_P1;HPM_P2
2023/08/21 00:01:05;;;;;;;53.08;22.70;;;;;;;;;;5004165;28;20511;-57
2023/08/21 00:03:38;;;;;;;60.53;23.35;;;;;;;;;;5010855;28;20093;-58
2023/08/21 00:06:06;;;;;;;63.30;23.67;;;;;;;;;;5004685;28;20109;-58
2023/08/21 00:08:40;;;;;;;73.45;25.17;;;;;;;;;;5005046;28;20053;-55
2023/08/21 00:11:13;;;;;;;76.85;28.05;;;;;;;;;;5000913;28;20057;-53
2023/08/21 00:13:54;;;;;;;60.95;24.33;;;;;;;;;;5005809;28;20518;-55
2023/08/21 00:16:21;;;;;;;59.45;22.83;;;;;;;;;;5002593;28;20076;-53
2023/08/21 00:18:56;;;;;;;78.78;25.15;;;;;;;;;;5011085;28;20048;-59
2023/08/21 00:21:23;;;;;;;68.63;24.67;;;;;;;;;;5008067;28;20476;-66
2023/08/21 00:23:51;;;;;;;60.78;23.92;;;;;;;;;;5000022;28;20161;-66
2023/08/21 00:26:25;;;;;;;56.65;22.88;;;;;;;;;;5000870;28;20053;-66
2023/08/21 00:28:52;;;;;;;69.65;24.05;;;;;;;;;;5001314;28;20117;-66
2023/08/21 00:31:25;;;;;;;60.97;23.95;;;;;;;;;;5002617;28;20143;-65
2023/08/21 00:33:53;;;;;;;58.58;24.45;;;;;;;;;;5004615;28;20054;-65
2023/08/21 00:36:20;;;;;;;61.58;24.67;;;;;;;;;;5007256;28;20588;-54
2023/08/21 00:38:54;;;;;;;63.08;24.85;;;;;;;;;;5001713;28;20454;-54
2023/08/21 00:41:21;;;;;;;64.03;24.83;;;;;;;;;;5003880;28;20076;-54
2023/08/21 00:43:54;;;;;;;54.38;22.40;;;;;;;;;;5006201;28;20061;-51
2023/08/21 00:46:22;;;;;;;53.65;22.40;;;;;;;;;;5003122;28;20061;-58
2023/08/21 00:48:49;;;;;;;;;;;;;;;;;;4999778;28;20052;-64
2023/08/21 00:51:22;;;;;;;56.15;22.25;;;;;;;;;;5005407;28;20334;-64
2023/08/21 00:53:50;;;;;;;65.43;24.08;;;;;;;;;;5002087;28;20057;-63
2023/08/21 00:56:24;;;;;;;52.13;21.88;;;;;;;;;;5001338;28;20065;-64
2023/08/21 00:58:51;;;;;;;69.78;25.42;;;;;;;;;;5002118;28;20156;-63
2023/08/21 01:01:19;;;;;;;60.33;24.85;;;;;;;;;;4995935;28;20053;-64
2023/08/21 01:03:53;;;;;;;51.92;22.25;;;;;;;;;;5005010;28;20140;-60
2023/08/21 01:06:20;;;;;;;;;;;;;;;;;;5001380;28;20580;-61
2023/08/21 01:09:01;;;;;;;47.70;19.77;;;;;;;;;;4997002;28;19925;-60
2023/08/21 01:11:34;;;;;;;49.05;20.95;;;;;;;;;;4999129;28;20118;-60
2023/08/21 01:14:23;;;;;;;53.25;21.10;;;;;;;;;;5002153;28;20049;-62
2023/08/21 01:16:53;;;;;;;50.55;21.65;;;;;;;;;;5002170;28;20172;-66
2023/08/21 01:19:31;;;;;;;43.38;18.02;;;;;;;;;;4996896;28;20790;-65
2023/08/21 01:22:00;;;;;;;48.10;19.25;;;;;;;;;;5003729;28;20065;-66
2023/08/21 01:24:34;;;;;;;50.33;19.25;;;;;;;;;;5002099;28;20056;-66
2023/08/21 01:27:02;;;;;;;;;;;;;;;;;;5003584;28;20602;-66
2023/08/21 01:29:29;;;;;;;49.00;17.42;;;;;;;;;;4999241;28;19932;-66
2023/08/21 01:32:08;;;;;;;48.83;19.98;;;;;;;;;;4999124;28;20085;-53
2023/08/21 01:34:37;;;;;;;51.88;18.85;;;;;;;;;;4996607;28;20601;-54
2023/08/21 01:37:12;;;;;;;42.97;16.42;;;;;;;;;;4994500;28;20058;-56
2023/08/21 01:39:39;;;;;;;;;;;;;;;;;;4998575;28;20522;-52
2023/08/21 01:42:06;;;;;;;35.05;14.52;;;;;;;;;;4993452;28;20500;-60
2023/08/21 01:44:39;;;;;;;40.05;14.88;;;;;;;;;;4996250;28;20054;-59
2023/08/21 01:47:13;;;;;;;33.65;12.98;;;;;;;;;;4990884;28;20515;-65
2023/08/21 01:49:41;;;;;;;29.80;11.75;;;;;;;;;;4995673;28;20053;-66
2023/08/21 01:52:08;;;;;;;36.08;12.70;;;;;;;;;;5004716;28;20495;-67
2023/08/21 01:54:42;;;;;;;37.80;12.18;;;;;;;;;;5003618;28;20053;-66
2023/08/21 01:57:09;;;;;;;34.55;11.75;;;;;;;;;;5002305;28;20059;-65
2023/08/21 01:59:43;;;;;;;42.47;11.43;;;;;;;;;;4998241;28;20116;-66
2023/08/21 02:02:10;;;;;;;30.42;11.60;;;;;;;;;;5000176;28;20515;-54
2023/08/21 02:04:44;;;;;;;40.05;12.93;;;;;;;;;;4998309;28;20065;-55
2023/08/21 02:07:11;;;;;;;33.10;12.05;;;;;;;;;;5000408;28;20057;-55
2023/08/21 02:09:38;;;;;;;31.92;12.95;;;;;;;;;;5000327;28;20066;-50
2023/08/21 02:12:25;;;;;;;39.10;11.23;;;;;;;;;;4998978;28;20062;-66
2023/08/21 02:15:01;;;;;;;41.55;13.98;;;;;;;;;;4998614;28;20050;-63
2023/08/21 02:17:42;;;;;;;38.40;12.38;;;;;;;;;;5000349;28;20696;-63
2023/08/21 02:20:10;;;;;;;35.13;12.45;;;;;;;;;;5002551;28;20041;-63
2023/08/21 02:22:45;;;;;;;41.53;12.23;;;;;;;;;;4996539;28;20515;-64
2023/08/21 02:25:12;;;;;;;39.78;13.38;;;;;;;;;;5003618;28;20054;-63
2023/08/21 02:27:39;;;;;;;49.90;13.75;;;;;;;;;;4997633;28;20304;-63
2023/08/21 02:30:13;;;;;;;50.78;15.15;;;;;;;;;;4996041;28;20131;-66
2023/08/21 02:32:40;;;;;;;43.88;14.35;;;;;;;;;;4996541;28;20053;-66
2023/08/21 02:35:14;;;;;;;39.28;15.50;;;;;;;;;;4996392;28;20096;-67
2023/08/21 02:37:41;;;;;;;45.88;15.30;;;;;;;;;;4993265;28;20511;-66
2023/08/21 02:40:08;;;;;;;50.03;15.77;;;;;;;;;;5001091;28;20083;-66
2023/08/21 02:42:42;;;;;;;40.30;15.75;;;;;;;;;;5001766;28;20095;-63
2023/08/21 02:45:09;;;;;;;56.30;17.52;;;;;;;;;;4998447;28;20057;-63
2023/08/21 02:47:36;;;;;;;;;;;;;;;;;;4998538;28;20050;-63
2023/08/21 02:50:11;;;;;;;59.50;17.65;;;;;;;;;;5002586;28;19991;-62
2023/08/21 02:52:38;;;;;;;65.93;19.92;;;;;;;;;;4998837;28;20462;-63
2023/08/21 02:55:12;;;;;;;47.28;16.80;;;;;;;;;;5004542;28;20057;-63
2023/08/21 02:57:39;;;;;;;71.85;20.80;;;;;;;;;;5004763;28;20128;-59
2023/08/21 03:00:08;;;;;;;51.10;19.05;;;;;;;;;;4996283;28;20053;-59
2023/08/21 03:02:43;;;;;;;61.72;18.05;;;;;;;;;;4998890;28;20061;-60
2023/08/21 03:05:11;;;;;;;56.95;19.08;;;;;;;;;;4996029;28;20062;-59
2023/08/21 03:07:46;;;;;;;60.97;20.23;;;;;;;;;;4998496;28;20113;-62
2023/08/21 03:10:13;;;;;;;53.13;18.65;;;;;;;;;;5002998;28;20167;-66
2023/08/21 03:12:53;;;;;;;53.00;19.05;;;;;;;;;;5000501;28;20057;-65
2023/08/21 03:15:20;;;;;;;56.08;20.38;;;;;;;;;;4999179;28;20125;-66
2023/08/21 03:17:55;;;;;;;50.47;19.08;;;;;;;;;;4997923;28;20078;-66
2023/08/21 03:20:22;;;;;;;57.72;17.63;;;;;;;;;;4999273;28;20052;-66
2023/08/21 03:22:49;;;;;;;46.53;15.70;;;;;;;;;;5000530;28;20068;-65
2023/08/21 03:25:23;;;;;;;62.45;17.45;;;;;;;;;;5002573;28;20079;-63
2023/08/21 03:27:50;;;;;;;57.03;18.00;;;;;;;;;;4996692;28;20061;-63
2023/08/21 03:30:24;;;;;;;49.08;16.92;;;;;;;;;;4998882;28;20054;-63
2023/08/21 03:32:51;;;;;;;;;;;;;;;;;;4999680;28;20494;-63
2023/08/21 03:35:18;;;;;;;38.80;14.57;;;;;;;;;;4998916;28;20414;-63
2023/08/21 03:37:53;;;;;;;57.40;17.60;;;;;;;;;;4999708;28;20076;-59
2023/08/21 03:40:20;;;;;;;51.65;14.95;;;;;;;;;;4997822;28;20081;-62
2023/08/21 03:42:54;;;;;;;60.33;18.23;;;;;;;;;;5002273;28;20119;-62
2023/08/21 03:45:21;;;;;;;54.28;17.80;;;;;;;;;;4999657;28;20569;-62
2023/08/21 03:47:48;;;;;;;59.88;16.45;;;;;;;;;;4998833;28;20600;-62
2023/08/21 03:50:22;;;;;;;41.58;13.98;;;;;;;;;;5004505;28;20100;-62
2023/08/21 03:52:49;;;;;;;43.58;14.85;;;;;;;;;;4997521;28;20061;-62
2023/08/21 03:55:23;;;;;;;49.42;15.73;;;;;;;;;;5007716;28;20586;-58
2023/08/21 03:57:50;;;;;;;36.00;12.43;;;;;;;;;;4998481;28;20050;-57
2023/08/21 04:00:17;;;;;;;43.03;13.05;;;;;;;;;;4997437;28;20105;-58
2023/08/21 04:02:52;;;;;;;50.42;14.77;;;;;;;;;;4992352;28;20050;-58
2023/08/21 04:05:19;;;;;;;42.42;12.57;;;;;;;;;;4994028;28;20050;-63
2023/08/21 04:07:46;;;;;;;34.53;9.88;;;;;;;;;;4991339;28;20069;-52
2023/08/21 04:10:20;;;;;;;47.38;12.60;;;;;;;;;;5001575;28;20518;-51
2023/08/21 04:13:01;;;;;;;42.38;11.73;;;;;;;;;;4995376;28;20351;-55
2023/08/21 04:15:41;;;;;;;35.53;9.45;;;;;;;;;;4997657;28;20145;-53
2023/08/21 04:18:16;;;;;;;46.40;9.75;;;;;;;;;;4997200;28;20057;-54
2023/08/21 04:21:00;;;;;;;36.10;11.35;;;;;;;;;;4998897;28;20061;-55
2023/08/21 04:23:35;;;;;;;36.75;9.20;;;;;;;;;;4991261;28;20485;-60
2023/08/21 04:26:02;;;;;;;29.95;10.05;;;;;;;;;;4997299;28;20054;-60
2023/08/21 04:28:30;;;;;;;;;;;;;;;;;;4997050;28;20506;-60
2023/08/21 04:31:07;;;;;;;31.88;8.93;;;;;;;;;;5000583;28;19988;-60
2023/08/21 04:33:35;;;;;;;29.88;8.65;;;;;;;;;;4997665;28;20093;-60
2023/08/21 04:36:14;;;;;;;28.77;8.63;;;;;;;;;;4996760;28;20073;-60
2023/08/21 04:38:42;;;;;;;18.90;6.40;;;;;;;;;;5000549;28;20058;-60
2023/08/21 04:41:16;;;;;;;29.88;8.00;;;;;;;;;;4997214;28;20120;-60
2023/08/21 04:43:43;;;;;;;28.98;8.25;;;;;;;;;;5002766;28;20057;-60
2023/08/21 04:46:10;;;;;;;29.65;7.32;;;;;;;;;;5003779;28;20053;-60
2023/08/21 04:48:45;;;;;;;32.63;8.15;;;;;;;;;;4996346;28;20082;-60
2023/08/21 04:51:13;;;;;;;30.35;7.32;;;;;;;;;;5003267;28;20049;-59
2023/08/21 04:53:40;;;;;;;26.50;6.45;;;;;;;;;;4999708;28;20061;-60
2023/08/21 04:56:14;;;;;;;27.45;7.45;;;;;;;;;;4993281;28;20322;-60
2023/08/21 04:58:41;;;;;;;25.27;6.72;;;;;;;;;;5003244;28;20597;-59
2023/08/21 05:01:08;;;;;;;31.23;7.05;;;;;;;;;;4998371;28;20054;-61
2023/08/21 05:03:42;;;;;;;22.88;6.55;;;;;;;;;;4991155;28;20859;-63
2023/08/21 05:06:09;;;;;;;28.10;7.55;;;;;;;;;;5000848;28;20058;-52
2023/08/21 05:08:36;;;;;;;18.55;5.85;;;;;;;;;;5002117;28;20108;-55
2023/08/21 05:11:11;;;;;;;24.35;5.82;;;;;;;;;;5000844;28;20105;-49
2023/08/21 05:13:38;;;;;;;26.65;6.40;;;;;;;;;;5006681;28;20053;-54
2023/08/21 05:16:12;;;;;;;25.42;6.65;;;;;;;;;;5003591;28;20158;-53
2023/08/21 05:18:39;;;;;;;20.30;5.55;;;;;;;;;;5002857;28;20437;-53
2023/08/21 05:21:07;;;;;;;23.85;6.35;;;;;;;;;;5002889;28;20068;-58
2023/08/21 05:23:41;;;;;;;21.38;5.72;;;;;;;;;;5002231;28;20577;-57
2023/08/21 05:26:08;;;;;;;18.95;5.22;;;;;;;;;;5001332;28;20069;-57
2023/08/21 05:28:35;;;;;;;21.98;6.53;;;;;;;;;;5005037;28;20053;-59
2023/08/21 05:31:09;;;;;;;23.63;5.47;;;;;;;;;;5004139;28;20054;-62
2023/08/21 05:33:36;;;;;;;22.35;4.75;;;;;;;;;;5001018;28;20064;-65
2023/08/21 05:36:04;;;;;;;17.80;5.05;;;;;;;;;;5003137;28;20506;-66
2023/08/21 05:38:38;;;;;;;20.17;5.43;;;;;;;;;;4988066;28;20054;-67
2023/08/21 05:41:05;;;;;;;17.77;4.97;;;;;;;;;;5001722;28;20065;-66
2023/08/21 05:43:32;;;;;;;21.25;5.10;;;;;;;;;;5006205;28;20141;-65
2023/08/21 05:46:06;;;;;;;25.33;5.85;;;;;;;;;;5001960;28;20058;-65
2023/08/21 05:48:33;;;;;;;15.85;4.68;;;;;;;;;;5004170;28;20929;-63
2023/08/21 05:51:01;;;;;;;19.38;4.38;;;;;;;;;;4979743;28;20061;-63
2023/08/21 05:53:36;;;;;;;15.98;4.85;;;;;;;;;;5002315;28;20112;-63
2023/08/21 05:56:03;;;;;;;22.73;4.75;;;;;;;;;;4999757;28;20057;-63
2023/08/21 05:58:32;;;;;;;21.88;5.22;;;;;;;;;;5006280;28;20595;-54
2023/08/21 06:01:07;;;;;;;22.80;5.00;;;;;;;;;;5000533;28;20156;-57
2023/08/21 06:03:34;;;;;;;32.45;5.68;;;;;;;;;;5002550;28;20145;-55
2023/08/21 06:06:01;;;;;;;;;;;;;;;;;;5000850;28;20144;-55
2023/08/21 06:08:36;;;;;;;24.67;5.88;;;;;;;;;;4998463;28;19979;-55
2023/08/21 06:11:03;;;;;;;26.58;5.20;;;;;;;;;;5003424;28;20351;-57
2023/08/21 06:13:43;;;;;;;18.55;5.50;;;;;;;;;;5009544;28;20129;-49
2023/08/21 06:16:11;;;;;;;18.77;4.70;;;;;;;;;;5003892;28;20062;-57
2023/08/21 06:18:45;;;;;;;22.55;4.68;;;;;;;;;;4998967;28;20569;-58
2023/08/21 06:21:12;;;;;;;22.77;4.80;;;;;;;;;;5003047;28;20062;-58
2023/08/21 06:23:39;;;;;;;18.83;4.47;;;;;;;;;;5001477;28;20186;-58
2023/08/21 06:26:13;;;;;;;15.02;4.55;;;;;;;;;;5001318;28;20105;-58
2023/08/21 06:28:40;;;;;;;;;;;;;;;;;;5006390;28;20058;-59
2023/08/21 06:31:09;;;;;;;18.92;4.05;;;;;;;;;;5002333;28;19983;-61
2023/08/21 06:33:43;;;;;;;26.10;4.30;;;;;;;;;;5004615;28;20058;-61
2023/08/21 06:36:10;;;;;;;12.38;4.05;;;;;;;;;;4999821;28;20050;-61
2023/08/21 06:38:37;;;;;;;17.20;4.10;;;;;;;;;;5000756;28;20057;-61
2023/08/21 06:41:11;;;;;;;18.02;3.65;;;;;;;;;;5000946;28;20133;-62
2023/08/21 06:43:39;;;;;;;14.32;4.30;;;;;;;;;;5006965;28;20140;-62
2023/08/21 06:46:11;;;;;;;16.98;3.80;;;;;;;;;;5003516;28;20053;-58
2023/08/21 06:48:45;;;;;;;12.93;3.63;;;;;;;;;;5002185;28;20052;-59
2023/08/21 06:51:12;;;;;;;16.10;4.47;;;;;;;;;;4999410;28;20069;-58
2023/08/21 06:53:43;;;;;;;17.88;4.18;;;;;;;;;;5002761;28;20113;-57
2023/08/21 06:56:17;;;;;;;15.50;4.40;;;;;;;;;;4998978;28;20113;-63
2023/08/21 06:58:44;;;;;;;;;;;;;;;;;;5006783;28;20569;-60
2023/08/21 07:01:11;;;;;;;18.90;3.92;;;;;;;;;;5000705;28;19952;-59
2023/08/21 07:03:45;;;;;;;13.15;3.95;;;;;;;;;;4999073;28;20054;-59
2023/08/21 07:06:12;;;;;;;16.85;3.70;;;;;;;;;;5001078;28;20058;-59
2023/08/21 07:08:40;;;;;;;;;;;;;;;;;;5001241;28;20604;-59
2023/08/21 07:11:14;;;;;;;24.27;4.25;;;;;;;;;;5001472;28;19948;-60
2023/08/21 07:13:43;;;;;;;19.42;3.72;;;;;;;;;;4989905;28;20064;-57
2023/08/21 07:16:18;;;;;;;16.25;3.65;;;;;;;;;;5003732;28;20501;-58
2023/08/21 07:18:45;;;;;;;14.18;3.60;;;;;;;;;;5001611;28;20042;-58
2023/08/21 07:21:12;;;;;;;12.57;3.30;;;;;;;;;;5000800;28;20049;-58
2023/08/21 07:24:00;;;;;;;17.10;3.22;;;;;;;;;;5004345;28;21355;-59
2023/08/21 07:26:28;;;;;;;;;;;;;;;;;;5001387;28;20127;-62
2023/08/21 07:29:04;;;;;;;10.63;2.95;;;;;;;;;;5004986;28;19925;-63
2023/08/21 07:31:31;;;;;;;9.20;3.08;;;;;;;;;;5003283;28;20525;-64
2023/08/21 07:34:05;;;;;;;16.35;3.28;;;;;;;;;;4999581;28;20209;-63
2023/08/21 07:36:32;;;;;;;16.25;3.10;;;;;;;;;;4997527;28;20478;-63
2023/08/21 07:39:00;;;;;;;14.82;3.35;;;;;;;;;;5000755;28;20065;-63
2023/08/21 07:41:35;;;;;;;23.50;3.67;;;;;;;;;;5004332;28;20054;-67
2023/08/21 07:44:03;;;;;;;19.45;3.42;;;;;;;;;;5001112;28;20076;-65
2023/08/21 07:46:30;;;;;;;11.77;3.08;;;;;;;;;;5003313;28;20060;-65
2023/08/21 07:49:04;;;;;;;13.30;3.25;;;;;;;;;;5000001;28;20069;-65
2023/08/21 07:51:31;;;;;;;15.13;3.70;;;;;;;;;;5002859;28;20054;-57
2023/08/21 07:53:58;;;;;;;12.80;3.15;;;;;;;;;;5000682;28;20050;-63
2023/08/21 07:56:32;;;;;;;15.63;3.78;;;;;;;;;;5001407;28;20125;-58
2023/08/21 07:59:00;;;;;;;17.10;3.63;;;;;;;;;;5002855;28;20128;-58
2023/08/21 08:01:28;;;;;;;16.52;3.40;;;;;;;;;;5003898;28;20426;-59
2023/08/21 08:04:02;;;;;;;12.20;3.08;;;;;;;;;;5005909;28;20456;-58
2023/08/21 08:06:29;;;;;;;20.73;3.47;;;;;;;;;;5005173;28;20049;-59
2023/08/21 08:08:57;;;;;;;10.95;3.10;;;;;;;;;;5006206;28;20066;-58
2023/08/21 08:11:31;;;;;;;19.77;3.40;;;;;;;;;;5004831;28;20053;-59
2023/08/21 08:13:58;;;;;;;13.32;3.10;;;;;;;;;;5005417;28;20578;-60
2023/08/21 08:16:32;;;;;;;12.05;3.00;;;;;;;;;;5002677;28;20105;-60
2023/08/21 08:18:59;;;;;;;16.02;3.25;;;;;;;;;;5003246;28;20058;-60
2023/08/21 08:21:26;;;;;;;11.02;2.85;;;;;;;;;;5007939;28;20088;-59
2023/08/21 08:24:00;;;;;;;13.77;3.72;;;;;;;;;;5006116;28;20136;-61
2023/08/21 08:26:27;;;;;;;12.40;2.92;;;;;;;;;;5006315;28;20124;-61
2023/08/21 08:28:54;;;;;;;15.48;2.75;;;;;;;;;;5010219;28;20588;-61
2023/08/21 08:31:29;;;;;;;10.85;3.15;;;;;;;;;;5003762;28;20081;-61
2023/08/21 08:33:56;;;;;;;;;;;;;;;;;;5001210;28;20050;-61
2023/08/21 08:36:23;;;;;;;11.55;3.75;;;;;;;;;;5004198;28;19953;-61
2023/08/21 08:38:57;;;;;;;14.20;3.63;;;;;;;;;;5003878;28;20054;-59
2023/08/21 08:41:54;;;;;;;16.65;3.53;;;;;;;;;;5003976;28;20066;-59
2023/08/21 08:44:30;;;;;;;16.63;3.88;;;;;;;;;;5006232;28;20121;-59
2023/08/21 08:46:57;;;;;;;15.52;3.50;;;;;;;;;;5007404;28;20590;-59
2023/08/21 08:49:25;;;;;;;14.35;3.38;;;;;;;;;;5002774;28;20058;-58
2023/08/21 08:52:00;;;;;;;12.30;3.20;;;;;;;;;;5005054;28;20053;-59
2023/08/21 08:54:27;;;;;;;12.63;3.08;;;;;;;;;;5005615;28;20216;-59
2023/08/21 08:57:01;;;;;;;19.00;3.58;;;;;;;;;;5004313;28;20054;-58
2023/08/21 08:59:31;;;;;;;12.23;3.08;;;;;;;;;;5005411;28;20193;-59
2023/08/21 09:01:58;;;;;;;16.00;3.30;;;;;;;;;;5005732;28;21661;-58
2023/08/21 09:04:33;;;;;;;16.23;3.13;;;;;;;;;;5005108;28;20066;-59
2023/08/21 09:07:00;;;;;;;;;;;;;;;;;;4984507;28;20531;-53
2023/08/21 09:09:40;;;;;;;16.02;3.78;;;;;;;;;;5004664;28;20357;-55
2023/08/21 09:12:16;;;;;;;13.57;3.53;;;;;;;;;;5002314;28;20106;-55
2023/08/21 09:14:59;;;;;;;12.50;3.20;;;;;;;;;;5001870;28;20057;-55
2023/08/21 09:17:26;;;;;;;10.45;2.83;;;;;;;;;;5006040;28;20064;-55
2023/08/21 09:20:08;;;;;;;16.33;3.17;;;;;;;;;;5004656;28;20149;-59
2023/08/21 09:22:35;;;;;;;11.85;2.75;;;;;;;;;;5005075;28;20131;-65
2023/08/21 09:25:10;;;;;;;16.30;3.50;;;;;;;;;;5003329;28;20069;-66
2023/08/21 09:27:39;;;;;;;14.27;3.30;;;;;;;;;;5002773;28;20060;-65
2023/08/21 09:30:09;;;;;;;15.82;3.50;;;;;;;;;;5001478;28;20076;-64
2023/08/21 09:33:04;;;;;;;14.30;3.10;;;;;;;;;;5003822;28;20054;-65
2023/08/21 09:35:33;;;;;;;16.08;3.50;;;;;;;;;;5001813;28;20062;-64
2023/08/21 09:38:07;;;;;;;14.05;3.47;;;;;;;;;;5005129;28;20117;-63
2023/08/21 09:40:35;;;;;;;13.82;3.10;;;;;;;;;;5002871;28;20569;-64
2023/08/21 09:43:11;;;;;;;13.20;2.97;;;;;;;;;;5004185;28;20580;-63
2023/08/21 09:45:38;;;;;;;13.25;2.95;;;;;;;;;;5004706;28;20046;-52
2023/08/21 09:48:06;;;;;;;10.85;3.33;;;;;;;;;;5001632;28;20062;-57
2023/08/21 09:50:43;;;;;;;10.95;3.10;;;;;;;;;;5001461;28;20446;-53
2023/08/21 09:53:13;;;;;;;13.73;3.38;;;;;;;;;;5007161;28;20053;-51
2023/08/21 09:55:48;;;;;;;10.25;2.75;;;;;;;;;;5005209;28;20074;-53
2023/08/21 09:58:16;;;;;;;15.00;3.17;;;;;;;;;;5003815;28;20054;-55
2023/08/21 10:00:44;;;;;;;12.88;2.97;;;;;;;;;;5004053;28;20137;-52
2023/08/21 10:03:19;;;;;;;16.27;3.95;;;;;;;;;;5002991;28;20083;-55
2023/08/21 10:05:48;;;;;;;15.70;3.25;;;;;;;;;;5004818;28;20046;-65
2023/08/21 10:08:16;;;;;;;16.83;2.97;;;;;;;;;;5004918;28;20961;-65
2023/08/21 10:10:50;;;;;;;14.95;3.08;;;;;;;;;;5003615;28;20105;-65
2023/08/21 10:13:25;;;;;;;12.68;2.58;;;;;;;;;;5000407;28;20053;-66
2023/08/21 10:16:06;;;;;;;8.27;2.38;;;;;;;;;;5002317;28;20049;-61
2023/08/21 10:18:37;;;;;;;9.15;2.83;;;;;;;;;;5006010;28;20154;-59
2023/08/21 10:21:12;;;;;;;14.18;3.30;;;;;;;;;;5003864;28;20136;-58
2023/08/21 10:23:54;;;;;;;10.32;3.10;;;;;;;;;;5003973;28;20057;-59
2023/08/21 10:26:22;;;;;;;9.02;2.58;;;;;;;;;;5004975;28;20192;-59
2023/08/21 10:29:06;;;;;;;15.25;2.75;;;;;;;;;;5002516;28;20108;-59
2023/08/21 10:31:39;;;;;;;10.23;3.10;;;;;;;;;;5003764;28;20061;-57
2023/08/21 10:34:13;;;;;;;14.05;3.20;;;;;;;;;;5000735;28;20077;-58
2023/08/21 10:36:44;;;;;;;16.20;3.13;;;;;;;;;;4999627;28;20049;-59
2023/08/21 10:39:18;;;;;;;10.27;2.95;;;;;;;;;;5001423;28;20068;-58
2023/08/21 10:41:56;;;;;;;14.68;3.25;;;;;;;;;;5000764;28;20046;-58
2023/08/21 10:44:42;;;;;;;8.77;2.88;;;;;;;;;;5006669;28;20593;-59
2023/08/21 10:47:23;;;;;;;13.95;3.08;;;;;;;;;;5006863;28;20050;-54
2023/08/21 10:49:58;;;;;;;13.10;2.77;;;;;;;;;;5001298;28;20054;-54
2023/08/21 10:52:29;;;;;;;11.57;3.00;;;;;;;;;;5001955;28;20104;-53
2023/08/21 10:54:57;;;;;;;15.15;3.13;;;;;;;;;;5000112;28;20707;-55
2023/08/21 10:57:31;;;;;;;11.77;2.90;;;;;;;;;;5001362;28;20088;-54
2023/08/21 11:00:09;;;;;;;10.25;2.92;;;;;;;;;;5001769;28;20058;-55
2023/08/21 11:02:44;;;;;;;12.77;3.10;;;;;;;;;;5005778;28;20163;-53
2023/08/21 11:05:12;;;;;;;16.35;3.38;;;;;;;;;;5004456;28;20537;-55
2023/08/21 11:07:40;;;;;;;13.52;3.17;;;;;;;;;;5001810;28;20049;-55
2023/08/21 11:10:24;;;;;;;10.73;2.88;;;;;;;;;;5002791;28;20080;-52
2023/08/21 11:13:02;;;;;;;12.80;2.77;;;;;;;;;;5002588;28;20086;-52
2023/08/21 11:15:42;;;;;;;13.05;3.40;;;;;;;;;;5003594;28;20050;-59
2023/08/21 11:18:10;;;;;;;17.40;3.65;;;;;;;;;;5001356;28;20119;-60
2023/08/21 11:20:45;;;;;;;13.63;2.97;;;;;;;;;;5003479;28;20053;-60
2023/08/21 11:23:12;;;;;;;15.40;3.45;;;;;;;;;;5001220;28;20054;-60
2023/08/21 11:25:40;;;;;;;15.65;3.33;;;;;;;;;;5001479;28;20143;-60
2023/08/21 11:28:16;;;;;;;14.45;2.97;;;;;;;;;;4997987;28;20104;-60
2023/08/21 11:30:44;;;;;;;19.00;3.35;;;;;;;;;;5001711;28;20115;-61
2023/08/21 11:33:18;;;;;;;11.45;3.22;;;;;;;;;;5001571;28;20049;-61
2023/08/21 11:35:45;;;;;;;;;;;;;;;;;;5001245;28;20420;-61
2023/08/21 11:38:19;;;;;;;12.60;2.72;;;;;;;;;;5005463;28;20388;-61
2023/08/21 11:41:05;;;;;;;18.55;3.78;;;;;;;;;;5001199;28;20430;-55
2023/08/21 11:43:37;;;;;;;12.27;3.00;;;;;;;;;;4980868;28;20125;-59
2023/08/21 11:46:11;;;;;;;;;;;;;;;;;;5000043;28;20120;-58
2023/08/21 11:48:39;;;;;;;15.77;3.38;;;;;;;;;;5001272;28;19931;-59
2023/08/21 11:51:06;;;;;;;14.85;3.08;;;;;;;;;;4998217;28;20053;-59
2023/08/21 11:53:41;;;;;;;14.52;2.80;;;;;;;;;;5003330;28;20058;-59
2023/08/21 11:56:13;;;;;;;10.68;3.08;;;;;;;;;;5001250;28;20141;-59
2023/08/21 11:58:50;;;;;;;16.55;3.47;;;;;;;;;;5000641;28;20042;-61
2023/08/21 12:01:19;;;;;;;14.18;3.00;;;;;;;;;;5000087;28;20053;-62
2023/08/21 12:03:46;;;;;;;10.18;3.28;;;;;;;;;;5002193;28;20050;-61
2023/08/21 12:06:20;;;;;;;11.90;3.30;;;;;;;;;;4998725;28;20046;-61
2023/08/21 12:08:47;;;;;;;11.30;3.30;;;;;;;;;;5003950;28;20137;-65
2023/08/21 12:11:15;;;;;;;10.73;2.83;;;;;;;;;;5001208;28;20061;-63
2023/08/21 12:13:55;;;;;;;14.40;3.08;;;;;;;;;;4996748;28;20049;-63
2023/08/21 12:16:23;;;;;;;12.90;2.88;;;;;;;;;;4999081;28;20476;-63
2023/08/21 12:18:57;;;;;;;12.75;2.95;;;;;;;;;;5002040;28;20046;-63
2023/08/21 12:21:24;;;;;;;;;;;;;;;;;;5004004;28;20061;-63
2023/08/21 12:23:51;;;;;;;16.15;3.30;;;;;;;;;;5006378;28;19948;-63
2023/08/21 12:26:26;;;;;;;9.68;2.90;;;;;;;;;;5004432;28;20503;-58
2023/08/21 12:29:03;;;;;;;13.80;3.20;;;;;;;;;;5000307;28;20062;-58
2023/08/21 12:31:37;;;;;;;16.75;3.13;;;;;;;;;;4996171;28;20073;-58
2023/08/21 12:34:04;;;;;;;;;;;;;;;;;;5000243;28;20438;-58
2023/08/21 12:36:31;;;;;;;14.45;3.47;;;;;;;;;;4997838;28;19940;-58
2023/08/21 12:39:07;;;;;;;12.85;2.78;;;;;;;;;;4997402;28;20049;-59
2023/08/21 12:41:34;;;;;;;11.68;3.17;;;;;;;;;;5005509;28;20046;-53
2023/08/21 12:44:02;;;;;;;9.75;3.20;;;;;;;;;;4998577;28;20454;-52
2023/08/21 12:46:36;;;;;;;14.77;3.15;;;;;;;;;;4996700;28;20060;-55
2023/08/21 12:49:04;;;;;;;9.77;2.95;;;;;;;;;;4998385;28;20439;-54
2023/08/21 12:51:31;;;;;;;9.27;3.05;;;;;;;;;;5004709;28;20804;-54
2023/08/21 12:54:05;;;;;;;12.20;2.72;;;;;;;;;;5000752;28;20086;-52
2023/08/21 12:56:32;;;;;;;18.20;3.53;;;;;;;;;;5008335;28;20050;-63
2023/08/21 12:59:00;;;;;;;15.43;3.13;;;;;;;;;;5001347;28;20511;-63
2023/08/21 13:01:35;;;;;;;16.77;3.53;;;;;;;;;;5002237;28;20046;-63
2023/08/21 13:04:03;;;;;;;10.95;2.80;;;;;;;;;;5005694;28;20049;-63
2023/08/21 13:06:37;;;;;;;12.10;3.08;;;;;;;;;;5003371;28;20053;-60
2023/08/21 13:09:11;;;;;;;16.48;3.05;;;;;;;;;;5000550;28;20050;-65
2023/08/21 13:11:45;;;;;;;10.40;2.72;;;;;;;;;;5004829;28;20062;-66
2023/08/21 13:14:19;;;;;;;8.35;2.70;;;;;;;;;;4999626;28;20060;-65
2023/08/21 13:17:02;;;;;;;10.38;3.25;;;;;;;;;;5004561;28;20065;-65
2023/08/21 13:19:30;;;;;;;11.75;2.47;;;;;;;;;;5003702;28;20062;-65
2023/08/21 13:22:04;;;;;;;14.27;3.53;;;;;;;;;;5001979;28;20101;-65
2023/08/21 13:24:31;;;;;;;;;;;;;;;;;;5000575;28;20058;-53
2023/08/21 13:26:59;;;;;;;15.95;3.00;;;;;;;;;;5004755;28;20000;-55
2023/08/21 13:29:33;;;;;;;9.73;2.78;;;;;;;;;;5002015;28;20072;-54
2023/08/21 13:32:01;;;;;;;12.13;3.42;;;;;;;;;;5000803;28;20124;-55
2023/08/21 13:34:28;;;;;;;11.65;2.90;;;;;;;;;;5003039;28;20057;-63
2023/08/21 13:37:03;;;;;;;13.75;3.00;;;;;;;;;;5002884;28;20494;-58
2023/08/21 13:39:31;;;;;;;11.25;3.03;;;;;;;;;;5001907;28;20057;-62
2023/08/21 13:42:05;;;;;;;10.57;2.95;;;;;;;;;;5006367;28;20057;-58
2023/08/21 13:44:32;;;;;;;;;;;;;;;;;;5002341;28;20419;-58
2023/08/21 13:47:00;;;;;;;14.52;2.90;;;;;;;;;;5002104;28;19991;-59
2023/08/21 13:49:34;;;;;;;12.68;3.35;;;;;;;;;;5004670;28;20423;-58
2023/08/21 13:52:01;;;;;;;17.92;3.13;;;;;;;;;;5002088;28;20549;-59
2023/08/21 13:54:29;;;;;;;13.18;2.47;;;;;;;;;;4999762;28;20750;-58
2023/08/21 13:57:03;;;;;;;10.45;2.85;;;;;;;;;;5004776;28;20058;-59
2023/08/21 13:59:31;;;;;;;11.73;2.72;;;;;;;;;;5004160;28;20498;-58
2023/08/21 14:01:58;;;;;;;11.95;2.88;;;;;;;;;;5004239;28;20502;-63
2023/08/21 14:04:32;;;;;;;11.07;2.50;;;;;;;;;;5000909;28;20475;-58
2023/08/21 14:07:00;;;;;;;13.43;3.15;;;;;;;;;;5001402;28;20159;-61
2023/08/21 14:09:27;;;;;;;11.02;2.60;;;;;;;;;;5000454;28;20572;-60
2023/08/21 14:12:01;;;;;;;13.32;3.10;;;;;;;;;;5004679;28;20136;-62
2023/08/21 14:14:28;;;;;;;15.55;3.33;;;;;;;;;;5002358;28;20545;-61
2023/08/21 14:17:03;;;;;;;15.45;3.17;;;;;;;;;;5002151;28;20053;-61
2023/08/21 14:19:31;;;;;;;10.60;2.95;;;;;;;;;;4981869;28;20056;-61
2023/08/21 14:21:59;;;;;;;14.48;3.40;;;;;;;;;;4998910;28;20049;-65
2023/08/21 14:24:33;;;;;;;12.75;3.28;;;;;;;;;;5001284;28;20058;-66
2023/08/21 14:27:01;;;;;;;11.93;3.00;;;;;;;;;;5006231;28;20112;-65
2023/08/21 14:29:28;;;;;;;14.80;3.28;;;;;;;;;;4999764;28;20115;-65
2023/08/21 14:32:02;;;;;;;14.65;3.67;;;;;;;;;;5000693;28;20050;-61
2023/08/21 14:34:29;;;;;;;11.98;3.05;;;;;;;;;;5000263;28;20058;-58
2023/08/21 14:36:58;;;;;;;12.93;2.90;;;;;;;;;;5001593;28;20169;-59
2023/08/21 14:39:33;;;;;;;9.52;2.78;;;;;;;;;;5000471;28;20056;-58
2023/08/21 14:42:01;;;;;;;13.88;2.75;;;;;;;;;;5002856;28;20171;-56
2023/08/21 14:44:28;;;;;;;14.75;3.10;;;;;;;;;;5003372;28;20546;-57
2023/08/21 14:47:02;;;;;;;10.63;2.95;;;;;;;;;;5002501;28;20427;-58
2023/08/21 14:49:34;;;;;;;9.57;2.55;;;;;;;;;;5002777;28;20057;-63
2023/08/21 14:52:01;;;;;;;10.75;2.80;;;;;;;;;;5002142;28;20053;-63
2023/08/21 14:54:35;;;;;;;10.48;2.92;;;;;;;;;;4983090;28;20733;-64
2023/08/21 14:57:09;;;;;;;12.98;2.85;;;;;;;;;;5003959;28;20164;-64